Time;durP1;ratioP1;P1;durP2;ratioP2;P2;SDS_P1;SDS_P2;PMS_P1;PMS_P2;Temp;Humidity;BMP_temperature;BMP_pressure;BME280_temperature;BME280_humidity;BME280_pressure;Samples;Min_cycle;Max_cycle;Signal;HPM_P1;HPM_P2
2023/03/04 00:00:29;;;;;;;;;;;;;;;3.90;53.91;101214.63;1944233;74;20818;-50
2023/03/04 00:02:56;;;;;;;;;;;;;;;3.89;53.73;101215.49;1951666;72;20140;-49
2023/03/04 00:05:24;;;;;;;;;;;;;;;3.86;53.95;101213.77;1944586;74;20117;-49
2023/03/04 00:07:52;;;;;;;;;;;;;;;3.81;53.81;101212.47;1943017;73;20185;-47
2023/03/04 00:10:20;;;;;;;;;;;;;;;3.79;53.67;101207.71;1943001;74;20160;-51
2023/03/04 00:12:47;;;;;;;;;;;;;;;3.78;53.59;101204.69;1943956;73;20112;-44
2023/03/04 00:15:15;;;;;;;;;;;;;;;3.75;53.68;101198.18;1943292;73;20117;-49
2023/03/04 00:17:44;;;;;;;;;;;;;;;3.68;54.06;101196.47;1943966;73;20175;-51
2023/03/04 00:20:13;;;;;;;;;;;;;;;3.59;54.24;101197.34;1943860;74;21141;-54
2023/03/04 00:22:40;;;;;;;;;;;;;;;3.54;54.82;101200.84;1942198;72;20147;-50
2023/03/04 00:25:08;;;;;;;;;;;;;;;3.46;54.73;101200.42;1944351;73;20276;-49
2023/03/04 00:27:36;;;;;;;;;;;;;;;3.40;54.89;101197.84;1943389;74;20215;-48
2023/03/04 00:30:05;;;;;;;;;;;;;;;3.34;55.94;101195.27;1943187;74;20386;-50
2023/03/04 00:32:33;;;;;;;;;;;;;;;3.29;56.50;101195.70;1942964;73;20666;-48
2023/03/04 00:35:00;;;;;;;;;;;;;;;3.29;55.94;101199.60;1942457;74;20167;-49
2023/03/04 00:37:28;;;;;;;;;;;;;;;3.29;55.79;101200.46;1942940;74;20116;-48
2023/03/04 00:39:56;;;;;;;;;;;;;;;3.27;55.66;101195.70;1943725;72;20213;-47
2023/03/04 00:42:24;;;;;;;;;;;;;;;3.25;55.46;101192.67;1894296;74;20107;-46
2023/03/04 00:44:51;;;;;;;;;;;;;;;3.24;55.50;101196.98;1897324;74;20409;-53
2023/03/04 00:47:19;;;;;;;;;;;;;;;3.22;55.77;101195.27;1937527;74;20172;-47
2023/03/04 00:49:47;;;;;;;;;;;;;;;3.24;56.09;101196.13;1937414;74;20113;-47
2023/03/04 00:52:15;;;;;;;;;;;;;;;3.26;56.23;101197.88;1937295;72;20109;-46
2023/03/04 00:54:43;;;;;;;;;;;;;;;3.24;56.47;101197.44;1946670;74;20168;-48
2023/03/04 00:57:11;;;;;;;;;;;;;;;3.24;56.93;101197.44;1947278;74;20378;-49
2023/03/04 00:59:39;;;;;;;;;;;;;;;3.25;57.38;101199.19;1947292;74;20288;-49
2023/03/04 01:02:07;;;;;;;;;;;;;;;3.28;57.23;101196.14;1947288;74;20104;-47
2023/03/04 01:04:35;;;;;;;;;;;;;;;3.33;57.08;101206.53;1947292;74;20116;-47
2023/03/04 01:07:03;;;;;;;;;;;;;;;3.38;57.04;101192.22;1947233;74;20112;-51
2023/03/04 01:09:31;;;;;;;;;;;;;;;3.43;56.69;101194.35;1947279;74;20116;-51
2023/03/04 01:11:58;;;;;;;;;;;;;;;3.44;57.12;101196.95;1947265;74;20100;-46
2023/03/04 01:14:26;;;;;;;;;;;;;;;3.51;56.63;101187.85;1947295;74;20116;-47
2023/03/04 01:16:54;;;;;;;;;;;;;;;3.53;56.64;101182.20;1947259;74;20100;-52
2023/03/04 01:19:22;;;;;;;;;;;;;;;3.56;56.61;101180.87;1947175;74;20120;-49
2023/03/04 01:21:50;;;;;;;;;;;;;;;3.60;56.45;101183.92;1947243;74;20148;-47
2023/03/04 01:24:17;;;;;;;;;;;;;;;3.63;56.31;101182.17;1947249;74;20117;-48
2023/03/04 01:26:45;;;;;;;;;;;;;;;3.66;56.20;101185.19;1947305;74;20096;-48
2023/03/04 01:29:13;;;;;;;;;;;;;;;3.69;56.20;101181.28;1947239;74;20117;-46
2023/03/04 01:31:40;;;;;;;;;;;;;;;3.72;56.01;101177.79;1947268;74;20101;-47
2023/03/04 01:34:08;;;;;;;;;;;;;;;3.75;55.88;101182.55;1948961;74;20151;-47
2023/03/04 01:36:36;;;;;;;;;;;;;;;3.79;55.83;101186.02;1951191;74;20109;-48
2023/03/04 01:39:04;;;;;;;;;;;;;;;3.78;55.89;101173.44;1951183;74;20117;-48
2023/03/04 01:41:32;;;;;;;;;;;;;;;3.83;55.81;101182.07;1951186;74;20140;-47
2023/03/04 01:44:01;;;;;;;;;;;;;;;3.85;55.90;101184.27;1951185;74;20186;-48
2023/03/04 01:46:30;;;;;;;;;;;;;;;3.89;55.63;101181.17;1951132;74;20112;-47
2023/03/04 01:48:58;;;;;;;;;;;;;;;3.91;55.55;101179.87;1951196;74;20401;-47
2023/03/04 01:51:26;;;;;;;;;;;;;;;3.93;55.45;101182.03;1951269;74;20120;-48
2023/03/04 01:53:55;;;;;;;;;;;;;;;3.94;55.34;101182.03;1964839;73;20386;-48
2023/03/04 01:56:24;;;;;;;;;;;;;;;3.95;55.39;101182.92;1965132;73;20163;-51
2023/03/04 01:59:08;;;;;;;;;;;;;;;3.96;55.47;101176.81;1965097;72;20146;-48
2023/03/04 02:01:37;;;;;;;;;;;;;;;3.99;55.38;101183.33;1965203;73;20343;-47
2023/03/04 02:04:06;;;;;;;;;;;;;;;4.02;55.28;101184.17;1965222;72;20402;-47
2023/03/04 02:06:36;;;;;;;;;;;;;;;4.07;55.31;101182.84;1965123;73;20116;-47
2023/03/04 02:09:04;;;;;;;;;;;;;;;4.08;55.27;101182.39;1964955;72;20112;-49
2023/03/04 02:11:32;;;;;;;;;;;;;;;4.05;55.34;101185.45;1965035;72;20116;-47
2023/03/04 02:14:00;;;;;;;;;;;;;;;4.07;55.42;101188.05;1965155;73;20147;-45
2023/03/04 02:16:27;;;;;;;;;;;;;;;4.07;55.32;101190.66;1965126;73;20148;-43
2023/03/04 02:18:55;;;;;;;;;;;;;;;4.10;55.26;101195.01;1965131;73;20108;-49
2023/03/04 02:21:31;;;;;;;;;;;;;;;4.11;55.23;101185.84;1965093;72;20112;-48
2023/03/04 02:24:18;;;;;;;;;;;;;;;4.12;55.18;101184.13;1964984;72;20145;-50
2023/03/04 02:26:46;;;;;;;;;;;;;;;4.12;55.14;101186.29;1965153;73;20103;-48
2023/03/04 02:29:15;;;;;;;;;;;;;;;4.14;55.12;101184.98;1965107;73;20112;-48
2023/03/04 02:31:44;;;;;;;;;;;;;;;4.18;54.99;101188.86;1965132;73;20120;-47
2023/03/04 02:34:13;;;;;;;;;;;;;;;4.21;54.87;101189.30;1946432;73;20392;-47
2023/03/04 02:36:42;;;;;;;;;;;;;;;4.24;54.77;101192.75;1926370;74;21103;-48
2023/03/04 02:39:21;;;;;;;;;;;;;;;4.28;54.67;101189.69;1926573;74;20122;-45
2023/03/04 02:41:50;;;;;;;;;;;;;;;4.32;54.60;101197.06;1926535;74;20114;-45
2023/03/04 02:44:21;;;;;;;;;;;;;;;4.35;54.53;101193.11;1926482;74;20106;-45
2023/03/04 02:46:50;;;;;;;;;;;;;;;4.36;54.43;101197.02;1926454;74;20118;-51
2023/03/04 02:49:18;;;;;;;;;;;;;;;4.39;54.46;101200.03;1926448;74;20540;-49
2023/03/04 02:51:46;;;;;;;;;;;;;;;4.38;54.48;101200.47;1926379;74;20098;-49
2023/03/04 02:54:15;;;;;;;;;;;;;;;4.34;54.67;101203.13;1912310;74;20400;-46
2023/03/04 02:56:51;;;;;;;;;;;;;;;4.34;54.61;101208.34;1909815;75;20119;-45
2023/03/04 02:59:21;;;;;;;;;;;;;;;4.32;54.61;101215.31;1909712;75;20199;-45
2023/03/04 03:01:50;;;;;;;;;;;;;;;4.30;55.20;101214.01;1917549;72;20240;-46
2023/03/04 03:04:18;;;;;;;;;;;;;;;4.19;55.85;101214.06;1935505;74;20113;-47
2023/03/04 03:06:46;;;;;;;;;;;;;;;4.14;56.10;101221.03;1951264;74;20139;-48
2023/03/04 03:09:16;;;;;;;;;;;;;;;4.13;56.02;101219.31;1951223;74;20116;-49
2023/03/04 03:11:44;;;;;;;;;;;;;;;4.13;55.93;101219.31;1951134;74;20116;-46
2023/03/04 03:14:12;;;;;;;;;;;;;;;4.11;56.30;101223.64;1945503;74;20113;-46
2023/03/04 03:16:40;;;;;;;;;;;;;;;4.04;57.26;101227.17;1945360;74;20147;-48
2023/03/04 03:19:08;;;;;;;;;;;;;;;4.01;57.19;101225.88;1945416;74;20163;-49
2023/03/04 03:21:36;;;;;;;;;;;;;;;3.99;58.53;101228.92;1945247;73;20108;-46
2023/03/04 03:24:04;;;;;;;;;;;;;;;3.98;58.69;101225.88;1948247;73;20143;-44
2023/03/04 03:26:32;;;;;;;;;;;;;;;4.00;60.30;101233.25;1951072;74;20100;-44
2023/03/04 03:29:00;;;;;;;;;;;;;;;4.00;60.00;101234.14;1951169;74;20203;-45
2023/03/04 03:31:28;;;;;;;;;;;;;;;4.01;60.00;101232.39;1951214;74;20112;-45
2023/03/04 03:33:56;;;;;;;;;;;;;;;4.02;60.32;101239.31;1948442;73;20355;-45
2023/03/04 03:36:24;;;;;;;;;;;;;;;4.02;60.65;101241.92;1937758;74;20117;-46
2023/03/04 03:38:51;;;;;;;;;;;;;;;4.03;59.92;101246.27;1943538;74;20108;-45
2023/03/04 03:41:19;;;;;;;;;;;;;;;4.05;59.65;101253.20;1943398;74;20180;-46
2023/03/04 03:43:47;;;;;;;;;;;;;;;4.09;59.30;101255.36;1943474;74;20121;-45
2023/03/04 03:46:14;;;;;;;;;;;;;;;4.11;59.48;101256.66;1943553;74;20112;-45
2023/03/04 03:48:43;;;;;;;;;;;;;;;4.14;59.84;101251.45;1943522;74;20105;-45
2023/03/04 03:51:11;;;;;;;;;;;;;;;4.15;60.39;101259.67;1943527;74;20112;-50
2023/03/04 03:53:38;;;;;;;;;;;;;;;4.17;60.35;101257.92;1945952;73;20109;-50
2023/03/04 03:56:07;;;;;;;;;;;;;;;4.16;61.81;101259.67;1950697;73;20139;-50
2023/03/04 03:58:34;;;;;;;;;;;;;;;4.16;61.20;101267.50;1950490;74;20104;-48
2023/03/04 04:01:02;;;;;;;;;;;;;;;4.19;60.76;101269.24;1955126;73;20116;-49
2023/03/04 04:03:30;;;;;;;;;;;;;;;4.19;61.26;101268.80;1959077;73;20206;-47
2023/03/04 04:05:57;;;;;;;;;;;;;;;4.19;62.40;101268.80;1958365;73;20112;-46
2023/03/04 04:08:25;;;;;;;;;;;;;;;4.19;62.49;101274.02;1958918;73;20496;-47
2023/03/04 04:10:53;;;;;;;;;;;;;;;4.19;62.32;101273.16;1955313;73;20113;-54
2023/03/04 04:13:21;;;;;;;;;;;;;;;4.17;62.76;101282.28;1954940;72;20194;-49
2023/03/04 04:15:50;;;;;;;;;;;;;;;4.17;62.50;101283.58;1951576;73;20116;-45
2023/03/04 04:18:18;;;;;;;;;;;;;;;4.19;62.07;101277.92;1955778;73;20120;-45
2023/03/04 04:20:46;;;;;;;;;;;;;;;4.21;62.33;101286.59;1956982;73;20100;-45
2023/03/04 04:23:13;;;;;;;;;;;;;;;4.19;62.77;101284.44;1921291;75;20181;-45
2023/03/04 04:25:41;;;;;;;;;;;;;;;4.18;63.93;101289.65;1921370;75;20119;-46
2023/03/04 04:28:09;;;;;;;;;;;;;;;4.15;64.24;101287.94;1944691;73;20150;-47
2023/03/04 04:30:37;;;;;;;;;;;;;;;4.12;64.71;101294.45;1950567;74;20100;-46
2023/03/04 04:33:05;;;;;;;;;;;;;;;4.08;65.36;101300.97;1950613;74;20116;-48
2023/03/04 04:35:34;;;;;;;;;;;;;;;4.03;65.60;101294.48;1951226;73;20421;-49
2023/03/04 04:38:02;;;;;;;;;;;;;;;4.01;65.55;101298.84;1953445;73;20500;-46
2023/03/04 04:40:29;;;;;;;;;;;;;;;3.98;65.93;101297.09;1950601;74;20146;-47
2023/03/04 04:42:57;;;;;;;;;;;;;;;3.96;66.44;101295.38;1950502;74;20143;-49
2023/03/04 04:45:25;;;;;;;;;;;;;;;3.99;66.75;101303.19;1950546;74;20116;-49
2023/03/04 04:47:54;;;;;;;;;;;;;;;4.00;66.46;101297.98;1952623;73;20116;-47
2023/03/04 04:50:22;;;;;;;;;;;;;;;4.02;66.31;101298.84;1959324;72;20124;-46
2023/03/04 04:52:50;;;;;;;;;;;;;;;4.08;66.59;101297.05;1954930;73;20104;-46
2023/03/04 04:55:18;;;;;;;;;;;;;;;4.07;66.84;101297.50;1953605;73;20154;-45
2023/03/04 04:57:45;;;;;;;;;;;;;;;4.13;66.32;101304.02;1955205;73;20116;-45
2023/03/04 05:00:14;;;;;;;;;;;;;;;4.18;67.19;101295.72;1921441;75;20373;-47
2023/03/04 05:02:41;;;;;;;;;;;;;;;4.25;67.00;101300.05;1952706;73;20190;-47
2023/03/04 05:05:09;;;;;;;;;;;;;;;4.33;67.04;101299.15;1950083;73;20193;-47
2023/03/04 05:07:37;;;;;;;;;;;;;;;4.38;68.00;101300.86;1916965;75;20115;-46
2023/03/04 05:10:05;;;;;;;;;;;;;;;4.43;68.03;101303.02;1916920;75;20118;-46
2023/03/04 05:12:32;;;;;;;;;;;;;;;4.48;67.96;101301.67;1916897;75;20149;-46
2023/03/04 05:15:00;;;;;;;;;;;;;;;4.57;67.76;101312.50;1940218;73;20145;-47
2023/03/04 05:17:28;;;;;;;;;;;;;;;4.62;68.57;101312.91;1950669;73;20113;-53
2023/03/04 05:19:56;;;;;;;;;;;;;;;4.66;69.40;101311.59;1950542;74;20117;-49
2023/03/04 05:22:23;;;;;;;;;;;;;;;4.67;68.54;101308.09;1950562;74;20112;-48
2023/03/04 05:24:51;;;;;;;;;;;;;;;4.69;68.23;101315.51;1950566;74;20167;-46
2023/03/04 05:27:19;;;;;;;;;;;;;;;4.75;67.77;101315.02;1954006;73;20109;-46
2023/03/04 05:29:47;;;;;;;;;;;;;;;4.81;67.33;101324.13;1949383;73;20171;-47
2023/03/04 05:32:14;;;;;;;;;;;;;;;4.86;67.97;101325.39;1947946;74;20140;-47
2023/03/04 05:34:42;;;;;;;;;;;;;;;4.87;68.03;101329.75;1947926;74;20113;-48
2023/03/04 05:37:10;;;;;;;;;;;;;;;4.86;68.91;101337.13;1949457;73;20260;-47
2023/03/04 05:39:37;;;;;;;;;;;;;;;4.84;69.22;101344.11;1953028;71;20113;-49
2023/03/04 05:42:05;;;;;;;;;;;;;;;4.85;69.33;101343.25;1953564;73;20393;-51
2023/03/04 05:44:33;;;;;;;;;;;;;;;4.87;68.65;101344.52;1955204;73;20112;-52
2023/03/04 05:47:01;;;;;;;;;;;;;;;4.89;68.24;101344.95;1953069;73;20116;-53
2023/03/04 05:49:28;;;;;;;;;;;;;;;4.92;68.20;101344.91;1958438;72;20100;-50
2023/03/04 05:51:56;;;;;;;;;;;;;;;4.90;68.96;101345.37;1959126;73;20116;-47
2023/03/04 05:54:24;;;;;;;;;;;;;;;4.92;68.55;101347.53;1958988;72;20116;-47
2023/03/04 05:56:52;;;;;;;;;;;;;;;4.96;68.49;101355.80;1959040;73;20171;-48
2023/03/04 05:59:20;;;;;;;;;;;;;;;5.00;68.70;101356.64;1959274;73;20374;-49
2023/03/04 06:01:50;;;;;;;;;;;;;;;5.05;68.56;101360.52;1954483;72;20374;-47
2023/03/04 06:04:20;;;;;;;;;;;;;;;5.11;68.73;101361.77;1933357;73;20152;-48
2023/03/04 06:06:48;;;;;;;;;;;;;;;5.15;68.62;101363.50;1955450;73;20112;-48
2023/03/04 06:09:19;;;;;;;;;;;;;;;5.14;68.80;101368.28;1952190;72;20124;-54
2023/03/04 06:11:48;;;;;;;;;;;;;;;5.16;69.01;101363.91;1924285;73;20424;-51
2023/03/04 06:14:16;;;;;;;;;;;;;;;5.27;69.58;101363.84;1959030;73;20112;-50
2023/03/04 06:16:44;;;;;;;;;;;;;;;5.38;68.63;101365.48;1952380;73;20151;-52
2023/03/04 06:19:11;;;;;;;;;;;;;;;5.54;68.94;101365.39;1955156;73;20143;-49
2023/03/04 06:21:39;;;;;;;;;;;;;;;5.69;68.12;101361.33;1955121;73;20124;-50
2023/03/04 06:24:07;;;;;;;;;;;;;;;5.82;68.19;101362.53;1956374;72;20207;-50
2023/03/04 06:26:35;;;;;;;;;;;;;;;5.84;68.71;101351.17;1958410;73;20112;-50
2023/03/04 06:29:02;;;;;;;;;;;;;;;5.83;69.15;101358.61;1950602;74;20190;-49
2023/03/04 06:31:30;;;;;;;;;;;;;;;5.89;68.91;101358.53;1950577;74;20105;-49
2023/03/04 06:33:58;;;;;;;;;;;;;;;5.99;69.75;101360.64;1950792;73;20143;-49
2023/03/04 06:36:25;;;;;;;;;;;;;;;6.10;69.14;101356.16;1950554;74;20347;-53
2023/03/04 06:38:53;;;;;;;;;;;;;;;6.18;68.60;101363.50;1950533;74;20139;-49
2023/03/04 06:41:21;;;;;;;;;;;;;;;6.30;68.18;101364.25;1950549;74;20117;-50
2023/03/04 06:43:49;;;;;;;;;;;;;;;6.38;67.87;101363.70;1950814;73;20156;-49
2023/03/04 06:46:16;;;;;;;;;;;;;;;6.48;67.65;101360.11;1950784;74;20351;-48
2023/03/04 06:48:44;;;;;;;;;;;;;;;6.56;67.52;101362.63;1950463;74;20104;-52
2023/03/04 06:51:12;;;;;;;;;;;;;;;6.64;67.19;101365.14;1950546;74;20113;-52
2023/03/04 06:53:40;;;;;;;;;;;;;;;6.73;67.03;101363.70;1950645;73;20162;-51
2023/03/04 06:56:09;;;;;;;;;;;;;;;6.83;67.07;101361.41;1921401;74;20126;-50
2023/03/04 06:58:37;;;;;;;;;;;;;;;6.94;66.75;101363.42;1921449;75;20149;-49
2023/03/04 07:01:11;;;;;;;;;;;;;;;7.03;66.39;101362.89;1921326;75;20111;-46
2023/03/04 07:03:39;;;;;;;;;;;;;;;7.09;66.14;101364.11;1921352;75;20200;-46
2023/03/04 07:06:09;;;;;;;;;;;;;;;7.05;66.00;101367.20;1945016;73;20104;-46
2023/03/04 07:08:37;;;;;;;;;;;;;;;7.01;65.89;101368.56;1950916;73;20383;-46
2023/03/04 07:11:05;;;;;;;;;;;;;;;7.01;65.79;101360.71;1950517;74;20124;-48
2023/03/04 07:13:36;;;;;;;;;;;;;;;6.97;65.73;101366.44;1950528;74;20147;-46
2023/03/04 07:16:02;;;;;;;;;;;;;;;6.89;65.85;101361.31;1950443;73;20147;-48
2023/03/04 07:18:30;;;;;;;;;;;;;;;6.80;66.17;101365.36;1950267;73;20114;-48
2023/03/04 07:20:58;;;;;;;;;;;;;;;6.67;66.76;101362.49;1947866;74;20109;-48
2023/03/04 07:23:25;;;;;;;;;;;;;;;6.53;67.77;101362.68;1947880;74;20104;-50
2023/03/04 07:25:53;;;;;;;;;;;;;;;6.51;67.84;101359.19;1945149;73;20117;-47
2023/03/04 07:28:21;;;;;;;;;;;;;;;6.60;68.28;101366.06;1933868;73;20116;-48
2023/03/04 07:30:49;;;;;;;;;;;;;;;6.67;68.15;101364.66;1955084;73;20221;-48
2023/03/04 07:33:16;;;;;;;;;;;;;;;6.72;68.17;101366.78;1955183;72;20116;-47
2023/03/04 07:35:44;;;;;;;;;;;;;;;6.81;68.34;101360.56;1955148;73;20148;-47
2023/03/04 07:38:12;;;;;;;;;;;;;;;6.82;68.73;101367.52;1950739;73;20119;-47
2023/03/04 07:40:39;;;;;;;;;;;;;;;6.74;70.37;101362.38;1959193;73;20112;-46
2023/03/04 07:43:07;;;;;;;;;;;;;;;6.63;69.98;101366.04;1959014;72;20104;-47
2023/03/04 07:45:36;;;;;;;;;;;;;;;6.59;70.25;101368.28;1959159;73;20108;-50
2023/03/04 07:48:04;;;;;;;;;;;;;;;6.58;70.03;101366.08;1958352;73;20131;-48
2023/03/04 07:50:32;;;;;;;;;;;;;;;6.66;70.08;101371.21;1959080;73;20163;-47
2023/03/04 07:53:00;;;;;;;;;;;;;;;6.72;70.12;101375.08;1959096;73;20111;-49
2023/03/04 07:55:29;;;;;;;;;;;;;;;6.73;70.71;101370.25;1959004;72;20100;-47
2023/03/04 07:57:57;;;;;;;;;;;;;;;6.82;70.02;101370.13;1955453;73;20199;-48
2023/03/04 08:00:25;;;;;;;;;;;;;;;6.94;69.65;101368.66;1953487;73;20120;-47
2023/03/04 08:02:53;;;;;;;;;;;;;;;7.01;69.74;101367.26;1959235;73;20167;-47
2023/03/04 08:05:20;;;;;;;;;;;;;;;7.02;69.53;101365.08;1959362;72;20346;-49
2023/03/04 08:07:48;;;;;;;;;;;;;;;7.03;69.33;101362.89;1958587;73;20096;-47
2023/03/04 08:10:16;;;;;;;;;;;;;;;7.02;69.29;101363.31;1959106;73;20143;-47
2023/03/04 08:12:44;;;;;;;;;;;;;;;7.04;69.42;101355.44;1959209;73;20171;-50
2023/03/04 08:15:11;;;;;;;;;;;;;;;7.02;69.08;101369.86;1959220;73;20100;-48
2023/03/04 08:17:39;;;;;;;;;;;;;;;7.02;68.99;101368.55;1959217;73;20146;-47
2023/03/04 08:20:07;;;;;;;;;;;;;;;7.01;68.89;101372.49;1901053;74;20102;-46
2023/03/04 08:22:35;;;;;;;;;;;;;;;6.97;68.95;101374.29;1914038;75;20119;-47
2023/03/04 08:25:03;;;;;;;;;;;;;;;6.96;68.80;101374.73;1914083;75;20154;-47
2023/03/04 08:27:31;;;;;;;;;;;;;;;6.92;68.95;101373.52;1914084;75;20107;-50
2023/03/04 08:29:59;;;;;;;;;;;;;;;6.85;69.15;101365.31;1932488;72;20104;-56
2023/03/04 08:32:26;;;;;;;;;;;;;;;6.80;69.94;101364.05;1950608;73;20155;-46
2023/03/04 08:34:55;;;;;;;;;;;;;;;6.72;70.56;101371.16;1950599;74;20147;-45
2023/03/04 08:37:23;;;;;;;;;;;;;;;6.67;70.81;101363.34;1950943;73;20167;-49
2023/03/04 08:39:51;;;;;;;;;;;;;;;6.65;71.22;101370.81;1951006;73;20142;-47
2023/03/04 08:42:18;;;;;;;;;;;;;;;6.66;71.18;101365.98;1950614;74;20096;-48
2023/03/04 08:44:46;;;;;;;;;;;;;;;6.70;71.15;101361.16;1950596;74;20112;-48
2023/03/04 08:47:14;;;;;;;;;;;;;;;6.73;71.45;101359.78;1950618;74;20108;-49
2023/03/04 08:49:42;;;;;;;;;;;;;;;6.78;71.61;101360.59;1950578;74;20112;-49
2023/03/04 08:52:10;;;;;;;;;;;;;;;6.81;71.62;101357.95;1951067;73;20198;-46
2023/03/04 08:54:37;;;;;;;;;;;;;;;6.90;71.65;101362.20;1950575;74;20142;-46
2023/03/04 08:57:06;;;;;;;;;;;;;;;7.03;71.39;101360.27;1950575;72;20120;-45
2023/03/04 08:59:34;;;;;;;;;;;;;;;7.16;70.91;101367.05;1957897;73;20112;-49
2023/03/04 09:02:02;;;;;;;;;;;;;;;7.23;71.16;101361.27;1959194;73;20120;-49
2023/03/04 09:04:30;;;;;;;;;;;;;;;7.30;71.22;101363.79;1959109;72;20143;-52
2023/03/04 09:06:57;;;;;;;;;;;;;;;7.35;71.21;101367.18;1959180;73;20375;-49
2023/03/04 09:09:25;;;;;;;;;;;;;;;7.37;71.10;101355.37;1959153;73;20100;-49
2023/03/04 09:11:53;;;;;;;;;;;;;;;7.40;70.98;101368.44;1959105;73;20201;-46
2023/03/04 09:14:21;;;;;;;;;;;;;;;7.46;70.92;101359.61;1959187;73;20112;-46
2023/03/04 09:16:48;;;;;;;;;;;;;;;7.52;70.73;101354.25;1958732;71;20116;-46
2023/03/04 09:19:16;;;;;;;;;;;;;;;7.55;70.48;101355.52;1965139;73;20179;-54
2023/03/04 09:21:44;;;;;;;;;;;;;;;7.61;70.26;101352.79;1965144;73;20116;-53
2023/03/04 09:24:12;;;;;;;;;;;;;;;7.64;70.02;101357.99;1965161;72;20100;-54
2023/03/04 09:26:39;;;;;;;;;;;;;;;7.63;69.78;101349.70;1965179;72;20116;-54
2023/03/04 09:29:07;;;;;;;;;;;;;;;7.63;69.76;101348.38;1955902;72;20104;-48
2023/03/04 09:31:35;;;;;;;;;;;;;;;7.69;69.86;101343.05;1955121;72;20142;-48
2023/03/04 09:34:02;;;;;;;;;;;;;;;7.73;69.72;101348.66;1955311;73;20167;-49
2023/03/04 09:36:30;;;;;;;;;;;;;;;7.77;69.50;101334.20;1955205;73;20096;-47
2023/03/04 09:39:03;;;;;;;;;;;;;;;7.72;69.46;101343.44;1950270;74;20147;-50
2023/03/04 09:41:35;;;;;;;;;;;;;;;7.67;69.43;101338.29;1950176;73;20143;-47
2023/03/04 09:44:04;;;;;;;;;;;;;;;7.58;69.53;101347.62;1950511;74;20190;-47
2023/03/04 09:46:34;;;;;;;;;;;;;;;7.58;69.43;101346.31;1950488;73;20116;-47
2023/03/04 09:49:02;;;;;;;;;;;;;;;7.58;69.74;101338.45;1952785;73;20393;-49
2023/03/04 09:51:31;;;;;;;;;;;;;;;7.60;69.59;101340.59;1950804;74;20378;-51
2023/03/04 09:54:09;;;;;;;;;;;;;;;7.60;69.57;101343.64;1949430;73;20120;-48
2023/03/04 09:56:39;;;;;;;;;;;;;;;7.51;69.91;101334.20;1950172;73;20387;-51
2023/03/04 09:59:08;;;;;;;;;;;;;;;7.33;70.74;101336.22;1943760;74;20105;-48
2023/03/04 10:01:49;;;;;;;;;;;;;;;7.25;70.99;101337.22;1897021;74;20417;-46
2023/03/04 10:04:21;;;;;;;;;;;;;;;7.19;71.23;101333.39;1943645;74;20147;-46
2023/03/04 10:06:53;;;;;;;;;;;;;;;7.09;71.88;101333.98;1952177;73;20142;-46
2023/03/04 10:09:20;;;;;;;;;;;;;;;7.07;72.05;101327.91;1954832;73;20136;-46
2023/03/04 10:11:49;;;;;;;;;;;;;;;7.02;72.45;101319.25;1953688;73;20112;-46
2023/03/04 10:14:18;;;;;;;;;;;;;;;7.02;72.69;101311.39;1954986;73;20143;-48
2023/03/04 10:16:51;;;;;;;;;;;;;;;7.13;72.62;101313.41;1947555;73;20147;-47
2023/03/04 10:19:26;;;;;;;;;;;;;;;7.35;72.47;101305.61;1945232;74;20142;-48
2023/03/04 10:21:54;;;;;;;;;;;;;;;7.71;72.54;101294.09;1944646;73;20160;-51
2023/03/04 10:24:24;;;;;;;;;;;;;;;7.86;71.91;101288.14;1939319;73;20118;-46
2023/03/04 10:26:53;;;;;;;;;;;;;;;8.05;71.56;101281.63;1915592;75;20126;-48
2023/03/04 10:29:23;;;;;;;;;;;;;;;8.23;71.11;101279.55;1943906;73;20113;-46
2023/03/04 10:31:54;;;;;;;;;;;;;;;8.46;70.66;101277.31;1951041;74;20109;-45
2023/03/04 10:34:20;;;;;;;;;;;;;;;8.85;70.11;101275.14;1951381;74;20116;-47
2023/03/04 10:36:56;;;;;;;;;;;;;;;9.26;69.29;101266.27;1951296;74;20155;-48
2023/03/04 10:39:31;;;;;;;;;;;;;;;9.32;68.82;101255.20;1947407;74;20171;-50
2023/03/04 10:42:00;;;;;;;;;;;;;;;9.53;68.63;101254.62;1949092;74;20117;-47
2023/03/04 10:44:29;;;;;;;;;;;;;;;9.87;68.09;101251.09;1951133;74;20100;-46
2023/03/04 10:46:57;;;;;;;;;;;;;;;9.85;67.55;101242.38;1950936;74;20160;-48
2023/03/04 10:49:26;;;;;;;;;;;;;;;9.90;67.51;101237.83;1951438;74;20422;-47
2023/03/04 10:51:55;;;;;;;;;;;;;;;10.28;67.14;101238.50;1951307;74;20491;-47
2023/03/04 10:54:24;;;;;;;;;;;;;;;10.65;66.55;101242.67;1951237;74;20108;-46
2023/03/04 10:56:59;;;;;;;;;;;;;;;10.85;66.07;101233.30;1951088;74;20109;-47
2023/03/04 10:59:31;;;;;;;;;;;;;;;11.15;65.50;101227.45;1965261;73;20409;-43
2023/03/04 11:01:59;;;;;;;;;;;;;;;12.14;63.53;101211.19;1965067;73;20141;-45
2023/03/04 11:04:28;;;;;;;;;;;;;;;12.44;62.49;101214.03;1965144;73;20112;-43
2023/03/04 11:06:56;;;;;;;;;;;;;;;12.58;61.70;101204.22;1964439;73;20088;-43
2023/03/04 11:09:26;;;;;;;;;;;;;;;12.79;61.24;101196.76;1995259;71;20102;-43
2023/03/04 11:11:55;;;;;;;;;;;;;;;13.05;60.63;101201.42;2005400;71;20242;-45
2023/03/04 11:14:24;;;;;;;;;;;;;;;13.35;60.09;101198.42;1965328;73;20147;-44
2023/03/04 11:16:54;;;;;;;;;;;;;;;13.46;58.86;101194.41;1965221;73;20142;-44
2023/03/04 11:19:23;;;;;;;;;;;;;;;13.28;58.65;101200.47;1965243;73;20347;-49
2023/03/04 11:21:52;;;;;;;;;;;;;;;13.46;58.25;101202.34;1965146;73;20387;-46
2023/03/04 11:24:24;;;;;;;;;;;;;;;13.41;57.99;101196.83;1972085;71;20148;-47
2023/03/04 11:26:55;;;;;;;;;;;;;;;12.95;58.35;101199.64;2007701;71;20098;-46
2023/03/04 11:29:27;;;;;;;;;;;;;;;12.35;59.37;101213.45;1979531;71;20110;-51
2023/03/04 11:31:59;;;;;;;;;;;;;;;11.95;60.32;101207.50;2007807;71;20106;-50
2023/03/04 11:34:29;;;;;;;;;;;;;;;11.75;61.04;101200.32;2007144;71;20106;-47
2023/03/04 11:37:04;;;;;;;;;;;;;;;11.47;61.43;101201.31;2007600;71;20110;-48
2023/03/04 11:39:43;;;;;;;;;;;;;;;11.34;62.12;101196.93;2007914;71;20109;-46
2023/03/04 11:42:18;;;;;;;;;;;;;;;11.42;62.19;101195.33;1984804;71;20109;-46
2023/03/04 11:44:47;;;;;;;;;;;;;;;11.67;61.96;101179.47;1956668;73;20104;-50
2023/03/04 11:47:20;;;;;;;;;;;;;;;12.00;61.43;101165.98;1957746;73;20189;-47
2023/03/04 11:50:05;;;;;;;;;;;;;;;12.34;60.33;101180.06;1932538;72;20210;-49
2023/03/04 11:52:51;;;;;;;;;;;;;;;12.58;59.61;101179.13;1963991;73;20393;-52
2023/03/04 11:55:36;;;;;;;;;;;;;;;12.65;59.41;101162.98;1965054;73;20116;-49
2023/03/04 11:58:05;;;;;;;;;;;;;;;12.24;59.79;101156.24;1932571;73;20201;-56
2023/03/04 12:00:50;;;;;;;;;;;;;;;11.74;60.72;101161.65;1953952;72;20112;-45
2023/03/04 12:03:35;;;;;;;;;;;;;;;11.23;61.62;101160.83;1913740;74;20138;-55
2023/03/04 12:06:04;;;;;;;;;;;;;;;11.05;62.52;101168.94;1948392;72;20106;-41
2023/03/04 12:08:34;;;;;;;;;;;;;;;10.85;63.14;101166.12;1955947;72;20211;-41
2023/03/04 12:11:09;;;;;;;;;;;;;;;10.71;63.50;101168.73;1951743;72;20158;-41
2023/03/04 12:13:38;;;;;;;;;;;;;;;10.54;63.86;101160.52;1956965;73;20100;-43
2023/03/04 12:16:07;;;;;;;;;;;;;;;10.55;64.07;101162.23;1956453;73;20116;-44
2023/03/04 12:18:42;;;;;;;;;;;;;;;10.50;64.02;101158.91;1944170;74;20116;-45
2023/03/04 12:21:12;;;;;;;;;;;;;;;10.31;64.55;101175.28;1949268;73;20108;-44
2023/03/04 13:21:40;;;;;;;12.82;8.00;;;;;;;9.58;67.63;101168.61;1932912;73;25803;-53
2023/03/04 13:24:47;;;;;;;11.93;6.03;;;;;;;9.60;67.50;101177.31;1902540;75;21603;-48
2023/03/04 13:27:50;;;;;;;7.65;3.25;;;;;;;9.75;67.43;101173.38;1898432;73;21054;-50
2023/03/04 13:30:33;;;;;;;6.15;2.75;;;;;;;9.75;67.09;101172.53;1890488;75;21458;-49
2023/03/04 13:33:14;;;;;;;5.35;2.10;;;;;;;9.63;67.21;101168.03;1839827;74;21211;-48
2023/03/04 13:35:51;;;;;;;3.50;2.85;;;;;;;9.56;67.26;101167.79;1909248;75;21111;-48
2023/03/04 13:38:26;;;;;;;11.45;3.77;;;;;;;9.49;67.37;101163.61;1911899;74;21032;-49
2023/03/04 13:41:06;;;;;;;5.65;2.83;;;;;;;9.41;67.52;101162.97;1885925;74;21039;-47
2023/03/04 13:43:41;;;;;;;5.72;2.10;;;;;;;9.34;67.72;101174.55;1891592;74;21552;-48
2023/03/04 13:46:22;;;;;;;4.35;2.17;;;;;;;9.22;67.99;101170.03;1904424;75;21049;-47
2023/03/04 13:48:54;;;;;;;11.33;5.95;;;;;;;9.22;67.91;101159.95;1896850;75;21104;-47
2023/03/04 13:51:40;;;;;;;7.87;3.50;;;;;;;9.16;68.09;101149.63;1899730;75;21033;-50